^^
Dati Storici Stazione
 
Giornaliero Riassunto Novembre 29, 2022 Unita' di misura:  Metriche    Inglesi   Entrambe
Giornaliero Settimanale Mensile Annuale
  Attuale: Max: Min: Media:
Temperatura: 9.5 °C 12.4 °C 4.6 °C 8.8 °C
Punto di Rugiada: 7.6 °C 7.8 °C 2.9 °C 5.7 °C
Umidita': 88% 89% 67% 81%
Velocita' Vento: 0.6km/h 5.8km/h 0km/h 1km/h
Raffica di Vento: 3.7km/h 14.5km/h - -
Direzione VentoSW - - South
Pressione: 1010.4 hPa 1013.8 hPa 1010.4 hPa -
Precipitazioni: 0.51 mm      
 
 
Tabelle Dati per il Novembre 29, 2022
Ora Temperatura Punto Rugiada Pressione Dir.Vento Vel.Vento Raff.Vento Umidita' Rainfall Rate (Orario) Solare Condizioni
00:04 5.6 °C 3.8 °C 1013.8 hPa Calm     88.2% 0 mm W/m2
00:09 5.6 °C 3.8 °C 1013.8 hPa Calm     89% 0 mm W/m2
00:14 5.4 °C 3.8 °C 1013.8 hPa Calm     89% 0 mm W/m2
00:19 5.4 °C 3.7 °C 1013.4 hPa Calm     89% 0 mm W/m2
00:24 5.3 °C 3.6 °C 1013.4 hPa Calm     89% 0 mm W/m2
00:29 5.2 °C 3.6 °C 1013.4 hPa Calm     89% 0 mm W/m2
00:34 5.2 °C 3.5 °C 1013.4 hPa Calm     89% 0 mm W/m2
00:39 5.1 °C 3.4 °C 1013.1 hPa Calm     89% 0 mm W/m2
00:44 5 °C 3.3 °C 1013.1 hPa Calm     89% 0 mm W/m2
00:49 4.8 °C 3.2 °C 1013.1 hPa Calm     89% 0 mm W/m2
00:54 4.7 °C 3.1 °C 1013.1 hPa Calm     89% 0 mm W/m2
00:59 4.6 °C 2.9 °C 1013.1 hPa Calm     89% 0 mm W/m2
01:04 4.6 °C 2.9 °C 1013.1 hPa Calm     89% 0 mm W/m2
01:09 4.6 °C 2.9 °C 1013.1 hPa Calm     89% 0 mm W/m2
01:14 4.8 °C 3.1 °C 1013.1 hPa Calm     89% 0 mm W/m2
01:19 4.8 °C 3.1 °C 1013.1 hPa Calm     89% 0 mm W/m2
01:24 4.7 °C 3 °C 1013.1 hPa Calm     89% 0 mm W/m2
01:29 4.7 °C 3 °C 1013.1 hPa Calm     89% 0 mm W/m2
01:34 4.8 °C 3.2 °C 1013.1 hPa Calm     89% 0 mm W/m2
01:39 5.1 °C 3.4 °C 1013.1 hPa Calm     89% 0 mm W/m2
01:44 5.3 °C 3.6 °C 1013.1 hPa Calm     89% 0 mm W/m2
01:49 5.4 °C 3.7 °C 1013.1 hPa Calm     89% 0 mm W/m2
01:54 5.3 °C 3.7 °C 1012.8 hPa Calm     89% 0 mm W/m2
01:59 5.4 °C 3.7 °C 1013.1 hPa Calm     89% 0 mm W/m2
02:04 5.4 °C 3.8 °C 1012.8 hPa Calm     89% 0 mm W/m2
02:09 5.4 °C 3.8 °C 1013.1 hPa Calm     89% 0 mm W/m2
02:14 5.5 °C 3.8 °C 1013.1 hPa Calm     89% 0 mm W/m2
02:19 5.6 °C 3.9 °C 1012.8 hPa Calm     89% 0 mm W/m2
02:24 5.6 °C 3.9 °C 1012.8 hPa Calm     89% 0 mm W/m2
02:29 5.7 °C 4.1 °C 1012.8 hPa Calm     89% 0 mm W/m2
02:34 5.7 °C 3.9 °C 1012.8 hPa Calm     88% 0 mm W/m2
02:39 5.7 °C 3.8 °C 1012.8 hPa Calm     88% 0 mm W/m2
02:44 5.5 °C 3.7 °C 1012.8 hPa Calm     88% 0 mm W/m2
02:49 5.5 °C 3.8 °C 1012.8 hPa Calm     88.7% 0 mm W/m2
02:54 5.4 °C 3.7 °C 1012.8 hPa Calm     88.5% 0 mm W/m2
02:59 5.3 °C 3.7 °C 1012.4 hPa Calm     89% 0 mm W/m2
03:04 5.3 °C 3.7 °C 1012.4 hPa Calm     89% 0 mm W/m2
03:09 5.4 °C 3.8 °C 1012.4 hPa Calm     89% 0 mm W/m2
03:14 5.7 °C 4.1 °C 1012.4 hPa Calm     89% 0 mm W/m2
03:19 6 °C 4.2 °C 1012.4 hPa Calm     88.6% 0 mm W/m2
03:24 6 °C 4.2 °C 1012.4 hPa Calm     88% 0 mm W/m2
03:29 5.9 °C 4.1 °C 1012.4 hPa Calm     88% 0 mm W/m2
03:34 5.8 °C 4 °C 1012.4 hPa Calm     88% 0 mm W/m2
03:39 5.9 °C 4.1 °C 1012.4 hPa Calm     88% 0 mm W/m2
03:44 5.9 °C 4.1 °C 1012.4 hPa Calm     88% 0 mm W/m2
03:49 6.1 °C 4.2 °C 1012.4 hPa West 0.2 km/h 3.2 km/h 87.6% 0 mm W/m2
03:54 6.3 °C 4.3 °C 1012.4 hPa West 1.1 km/h 3.7 km/h 87.5% 0 mm W/m2
03:59 6.6 °C 4.5 °C 1012.4 hPa West 1.3 km/h 3.7 km/h 86.4% 0 mm W/m2
04:04 6.7 °C 4.4 °C 1012.4 hPa West 0.3 km/h 3.7 km/h 85.1% 0 mm W/m2
04:09 6.7 °C 4.4 °C 1012.1 hPa Calm   3.2 km/h 85% 0 mm W/m2
04:14 6.7 °C 4.3 °C 1012.1 hPa Calm     85% 0 mm W/m2
04:19 6.6 °C 4.2 °C 1012.1 hPa Calm     85% 0 mm W/m2
04:24 6.2 °C 3.9 °C 1012.1 hPa West 0.6 km/h 1.9 km/h 85.2% 0 mm W/m2
04:29 6 °C 3.9 °C 1012.1 hPa West 0.6 km/h 1.9 km/h 86.2% 0 mm W/m2
04:34 5.9 °C 3.9 °C 1012.1 hPa West 0.2 km/h 1.9 km/h 87% 0 mm W/m2
04:39 5.8 °C 3.8 °C 1012.1 hPa Calm   1.6 km/h 87.2% 0 mm W/m2
04:44 5.8 °C 4 °C 1012.1 hPa West 0.6 km/h 1.9 km/h 88% 0 mm W/m2
04:49 6.2 °C 4.3 °C 1012.1 hPa Calm   1.9 km/h 87.5% 0 mm W/m2
04:54 6.4 °C 4.3 °C 1012.1 hPa Calm   1.9 km/h 86.5% 0 mm W/m2
04:59 6.5 °C 4.3 °C 1012.1 hPa Calm   1.6 km/h 86% 0 mm W/m2
05:04 6.6 °C 4.3 °C 1012.1 hPa Calm     85.5% 0 mm W/m2
05:09 6.6 °C 4.3 °C 1011.7 hPa Calm   1.9 km/h 85.2% 0 mm W/m2
05:14 6.7 °C 4.4 °C 1011.7 hPa Calm   1.6 km/h 85.4% 0 mm W/m2
05:19 6.7 °C 4.4 °C 1011.7 hPa Calm   1.9 km/h 85% 0 mm W/m2
05:24 6.8 °C 4.4 °C 1011.7 hPa Calm   1.9 km/h 85% 0 mm W/m2
05:29 6.7 °C 4.3 °C 1011.7 hPa West 0.3 km/h 1.9 km/h 85% 0 mm W/m2
05:34 6.6 °C 4.2 °C 1012.1 hPa West 0.6 km/h 1.9 km/h 85% 0 mm W/m2
05:39 6.6 °C 4.2 °C 1012.1 hPa West 1 km/h 3.7 km/h 85% 0 mm W/m2
05:44 6.4 °C 4.1 °C 1012.1 hPa West 0.3 km/h 3.2 km/h 85% 0 mm W/m2
05:49 6.2 °C 3.9 °C 1012.4 hPa West 0.5 km/h 1.9 km/h 85.6% 0 mm W/m2
05:54 6.2 °C 4.2 °C 1012.1 hPa West 0.3 km/h 3.7 km/h 86.7% 0 mm W/m2
05:59 6.4 °C 4.3 °C 1012.1 hPa Calm   3.2 km/h 86.2% 0 mm W/m2
06:04 6.6 °C 4.4 °C 1012.1 hPa Calm     86% 0 mm W/m2
06:09 6.6 °C 4.4 °C 1012.1 hPa Calm   1.6 km/h 86% 0 mm W/m2
06:14 6.7 °C 4.4 °C 1012.1 hPa Calm   1.9 km/h 85.2% 0 mm W/m2
06:19 6.8 °C 4.5 °C 1012.1 hPa West 0.5 km/h 3.7 km/h 85% 0 mm W/m2
06:24 7.1 °C 4.6 °C 1012.1 hPa Calm   3.2 km/h 84.5% 0 mm W/m2
06:29 7.2 °C 4.7 °C 1011.7 hPa NW 0.3 km/h 1.9 km/h 84% 0 mm W/m2
06:34 7.3 °C 4.7 °C 1012.1 hPa NW 0.5 km/h 3.7 km/h 83.5% 0 mm W/m2
06:39 7.4 °C 4.7 °C 1012.1 hPa West 0.3 km/h 3.2 km/h 83% 0 mm W/m2
06:44 7.5 °C 4.8 °C 1012.1 hPa West 0.2 km/h 1.9 km/h 83% 0 mm W/m2
06:49 7.4 °C 4.7 °C 1012.1 hPa West 0.5 km/h 1.9 km/h 83% 0 mm W/m2
06:54 7.4 °C 4.7 °C 1012.4 hPa West 0.2 km/h 1.9 km/h 83% 0 mm W/m2
06:59 7.4 °C 4.7 °C 1012.1 hPa Calm   1.9 km/h 83% 0 mm W/m2
07:04 7.4 °C 4.7 °C 1012.1 hPa Calm   1.9 km/h 83% 0 mm W/m2
07:09 7.5 °C 4.8 °C 1012.1 hPa NW 0.3 km/h 1.9 km/h 83% 0 mm W/m2
07:14 7.6 °C 4.9 °C 1012.1 hPa Calm   1.9 km/h 83% 0 mm W/m2
07:19 7.6 °C 4.9 °C 1012.1 hPa Calm   1.6 km/h 83% 0 mm W/m2
07:24 7.6 °C 4.9 °C 1012.1 hPa Calm     83% 0 mm W/m2
07:29 7.6 °C 4.9 °C 1012.1 hPa Calm     83.2% 0 mm W/m2
07:34 7.6 °C 5 °C 1012.4 hPa West 0.2 km/h 3.7 km/h 84% 0 mm W/m2
07:39 7.6 °C 5 °C 1012.4 hPa Calm   3.2 km/h 83.7% 0 mm W/m2
07:44 7.6 °C 4.9 °C 1012.4 hPa Calm   1.9 km/h 83% 0 mm W/m2
07:49 7.7 °C 4.9 °C 1012.4 hPa Calm   1.6 km/h 83% 0 mm W/m2
07:54 7.7 °C 5 °C 1012.4 hPa Calm     83% 0 mm W/m2
07:59 7.7 °C 5 °C 1012.4 hPa NW 0.2 km/h 1.9 km/h 83% 0 mm W/m2
08:04 7.8 °C 5.1 °C 1012.4 hPa Calm   1.9 km/h 83% 0 mm W/m2
08:09 7.9 °C 5.2 °C 1012.4 hPa WNW 0.3 km/h 1.9 km/h 83% 0 mm W/m2
08:14 8 °C 5.2 °C 1012.4 hPa NW 0.3 km/h 1.9 km/h 82.4% 0 mm W/m2
08:19 8.1 °C 5.2 °C 1012.4 hPa NW 0.5 km/h 3.7 km/h 82% 0 mm W/m2
08:24 8.2 °C 5.3 °C 1012.4 hPa Calm   3.2 km/h 82% 0 mm W/m2
08:29 8.2 °C 5.3 °C 1012.4 hPa NW 0.3 km/h 1.9 km/h 82% 0 mm W/m2
08:34 8.3 °C 5.3 °C 1012.4 hPa NW 0.6 km/h 3.7 km/h 81% 0 mm W/m2
08:39 8.4 °C 5.3 °C 1012.4 hPa WNW 0.2 km/h 3.2 km/h 81% 0 mm W/m2
08:44 8.5 °C 5.3 °C 1012.4 hPa NW 0.2 km/h 1.9 km/h 80.4% 0 mm W/m2
08:49 8.6 °C 5.3 °C 1012.4 hPa WNW 0.3 km/h 3.7 km/h 80% 0 mm W/m2
08:54 8.6 °C 5.3 °C 1012.4 hPa WNW 0.5 km/h 3.7 km/h 80% 0 mm W/m2
08:59 8.6 °C 5.3 °C 1012.4 hPa NW 0.3 km/h 3.2 km/h 80% 0 mm W/m2
09:04 8.7 °C 5.4 °C 1012.4 hPa WNW 0.5 km/h 3.7 km/h 80% 0 mm W/m2
09:09 8.7 °C 5.6 °C 1012.4 hPa WNW 0.5 km/h 3.7 km/h 80.6% 0 mm W/m2
09:14 8.8 °C 5.7 °C 1012.4 hPa WNW 0.2 km/h 3.2 km/h 81% 0 mm W/m2
09:19 8.9 °C 5.7 °C 1012.4 hPa NW 0.2 km/h 1.9 km/h 81% 0 mm W/m2
09:24 8.9 °C 5.8 °C 1012.4 hPa WNW 0.2 km/h 1.9 km/h 81% 0 mm W/m2
09:29 9 °C 6.1 °C 1012.4 hPa WNW 0.6 km/h 1.9 km/h 82% 0 mm W/m2
09:34 9.1 °C 6.2 °C 1012.4 hPa WNW 0.3 km/h 3.7 km/h 82% 0 mm W/m2
09:39 9.1 °C 6.2 °C 1012.4 hPa WNW 0.3 km/h 3.2 km/h 82% 0 mm W/m2
09:44 9.2 °C 6.3 °C 1012.4 hPa WNW 0.2 km/h 1.9 km/h 82% 0 mm W/m2
09:49 9.3 °C 6.4 °C 1012.4 hPa NW 0.2 km/h 1.9 km/h 82% 0 mm W/m2
09:54 9.3 °C 6.4 °C 1012.4 hPa WNW 1 km/h 3.7 km/h 82% 0 mm W/m2
09:59 9.4 °C 6.4 °C 1012.4 hPa NW 1.6 km/h 5.6 km/h 82% 0 mm W/m2
10:04 9.4 °C 6.6 °C 1012.4 hPa NW 1 km/h 4.8 km/h 82.5% 0 mm W/m2
10:09 9.5 °C 6.8 °C 1012.4 hPa NW 1 km/h 5.6 km/h 83% 0 mm W/m2
10:14 9.6 °C 6.9 °C 1012.4 hPa WNW 0.2 km/h 4.8 km/h 83% 0 mm W/m2
10:19 9.8 °C 7 °C 1012.4 hPa WNW 0.3 km/h 3.2 km/h 83% 0 mm W/m2
10:24 9.9 °C 7.2 °C 1012.4 hPa Calm   3.2 km/h 83% 0 mm W/m2
10:29 10.2 °C 7.3 °C 1012.4 hPa Calm   1.9 km/h 82.2% 0 mm W/m2
10:34 10.3 °C 7.3 °C 1012.4 hPa NW 0.2 km/h 1.9 km/h 81.4% 0 mm W/m2
10:39 10.5 °C 7.4 °C 1012.4 hPa NW 0.3 km/h 1.9 km/h 81% 0 mm W/m2
10:44 10.7 °C 7.3 °C 1012.1 hPa Calm   1.6 km/h 80% 0 mm W/m2
10:49 10.9 °C 7.4 °C 1012.4 hPa NW 0.3 km/h 1.9 km/h 78.9% 0 mm W/m2
10:54 11.1 °C 7.3 °C 1012.4 hPa NW 0.2 km/h 1.9 km/h 77.6% 0 mm W/m2
10:59 11.3 °C 7.3 °C 1012.4 hPa NW 0.5 km/h 3.7 km/h 75.9% 0 mm W/m2
11:04 11.6 °C 7.1 °C 1012.4 hPa WNW 0.3 km/h 3.7 km/h 73.7% 0 mm W/m2
11:09 11.7 °C 6.9 °C 1012.4 hPa SSE 0.6 km/h 3.7 km/h 72.4% 0 mm W/m2
11:14 11.7 °C 6.8 °C 1012.4 hPa SSE 1.6 km/h 5.6 km/h 72.4% 0 mm W/m2
11:19 11.4 °C 6.5 °C 1012.1 hPa SSE 2.1 km/h 6.4 km/h 71.7% 0 mm W/m2
11:24 11.3 °C 6.4 °C 1011.7 hPa SSE 3.4 km/h 6.4 km/h 71.8% 0 mm W/m2
11:29 11.3 °C 6.6 °C 1011.7 hPa SSE 1.4 km/h 6.4 km/h 72.6% 0 mm W/m2
11:34 11.4 °C 6.5 °C 1011.7 hPa SSE 2.1 km/h 5.6 km/h 71.7% 0 mm W/m2
11:39 11.4 °C 6.4 °C 1011.7 hPa SSE 2.4 km/h 8 km/h 71% 0 mm W/m2
11:44 11.5 °C 6.5 °C 1011.7 hPa SSE 1.9 km/h 8 km/h 71.4% 0 mm W/m2
11:49 11.5 °C 6.5 °C 1011.7 hPa SSE 2.4 km/h 8 km/h 71.4% 0 mm W/m2
11:54 11.4 °C 6.5 °C 1011.7 hPa SSE 1.9 km/h 8 km/h 71.8% 0 mm W/m2
11:59 11.4 °C 6.4 °C 1011.7 hPa SSE 0.6 km/h 4.8 km/h 71.4% 0 mm W/m2
12:04 11.4 °C 6.4 °C 1011.7 hPa SSE 1.8 km/h 6.4 km/h 71.7% 0 mm W/m2
12:09 11.3 °C 6.4 °C 1011.4 hPa SSE 1.9 km/h 6.4 km/h 71.6% 0 mm W/m2
12:14 11.3 °C 6.5 °C 1011.4 hPa SSE 1.3 km/h 6.4 km/h 72.2% 0 mm W/m2
12:19 11.4 °C 6.6 °C 1011.4 hPa SSE 1.6 km/h 5.6 km/h 71.9% 0 mm W/m2
12:24 11.7 °C 6.6 °C 1011.4 hPa SSE 1.8 km/h 5.6 km/h 71% 0 mm W/m2
12:29 11.9 °C 6.7 °C 1011.4 hPa NE 2.6 km/h 8 km/h 70.2% 0 mm W/m2
12:34 12.1 °C 6.7 °C 1011.4 hPa NE 2.7 km/h 8 km/h 69.3% 0 mm W/m2
12:39 12.1 °C 6.5 °C 1011.1 hPa NE 4 km/h 11.3 km/h 68.9% 0 mm W/m2
12:44 12 °C 6.6 °C 1011.1 hPa NE 4.3 km/h 11.3 km/h 69.2% 0 mm W/m2
12:49 11.9 °C 6.4 °C 1011.1 hPa NE 4.8 km/h 11.3 km/h 69.2% 0 mm W/m2
12:54 11.8 °C 6.5 °C 1011.1 hPa NE 5.8 km/h 11.3 km/h 69.9% 0 mm W/m2
12:59 11.8 °C 6.6 °C 1010.7 hPa NE 5.1 km/h 11.3 km/h 70.5% 0 mm W/m2
13:04 12 °C 6.9 °C 1011.1 hPa NE 4.2 km/h 11.3 km/h 70.9% 0 mm W/m2
13:09 12.2 °C 6.8 °C 1010.7 hPa NE 4.2 km/h 11.3 km/h 69.3% 0 mm W/m2
13:14 12.3 °C 6.8 °C 1010.7 hPa NE 3.7 km/h 9.7 km/h 68.8% 0 mm W/m2
13:19 12.4 °C 6.6 °C 1010.7 hPa NE 4.8 km/h 11.3 km/h 67.3% 0 mm W/m2
13:24 12.3 °C 6.4 °C 1010.7 hPa NE 5.3 km/h 11.3 km/h 67% 0 mm W/m2
13:29 12.2 °C 6.4 °C 1010.7 hPa NE 3.1 km/h 11.3 km/h 67.6% 0 mm W/m2
13:34 12.2 °C 6.6 °C 1010.7 hPa NE 3.1 km/h 9.7 km/h 68.2% 0 mm W/m2
13:39 12.1 °C 6.4 °C 1010.7 hPa NE 4.3 km/h 9.7 km/h 68% 0 mm W/m2
13:44 11.9 °C 6.2 °C 1010.7 hPa NE 5.8 km/h 11.3 km/h 68% 0 mm W/m2
13:49 11.8 °C 6.1 °C 1010.7 hPa NE 3.9 km/h 11.3 km/h 68% 0 mm W/m2
13:54 11.8 °C 6.3 °C 1010.7 hPa NE 3.7 km/h 9.7 km/h 68.9% 0 mm W/m2
13:59 11.9 °C 6.4 °C 1010.7 hPa NE 3.4 km/h 9.7 km/h 69% 0 mm W/m2
14:04 11.9 °C 6.6 °C 1010.7 hPa NE 3.4 km/h 9.7 km/h 69.8% 0 mm W/m2
14:09 12 °C 6.5 °C 1010.7 hPa NE 4.7 km/h 11.3 km/h 69.1% 0 mm W/m2
14:14 11.9 °C 6.7 °C 1010.7 hPa NE 4.8 km/h 11.3 km/h 70% 0 mm W/m2
14:19 11.9 °C 6.6 °C 1010.7 hPa NE 5.1 km/h 9.7 km/h 70% 0 mm W/m2
14:24 11.8 °C 6.7 °C 1010.4 hPa NE 4.5 km/h 9.7 km/h 70.7% 0 mm W/m2
14:29 11.8 °C 6.7 °C 1010.4 hPa NE 3.2 km/h 11.3 km/h 71% 0 mm W/m2
14:34 11.7 °C 6.7 °C 1010.4 hPa NNE 4 km/h 12.9 km/h 71.5% 0 mm W/m2
14:39 11.7 °C 6.8 °C 1010.4 hPa NE 4.2 km/h 13 km/h 72.2% 0 mm W/m2
14:44 11.7 °C 7 °C 1010.4 hPa ENE 5.1 km/h 14.5 km/h 72.8% 0 mm W/m2
14:49 11.7 °C 7 °C 1010.4 hPa NE 3.7 km/h 14.5 km/h 73% 0 mm W/m2
14:54 11.6 °C 7.1 °C 1010.4 hPa NE 4.3 km/h 9.7 km/h 73.5% 0 mm W/m2
14:59 11.6 °C 7.1 °C 1010.4 hPa NE 4.7 km/h 13 km/h 74% 0 mm W/m2
15:04 11.6 °C 7.3 °C 1010.4 hPa NE 4 km/h 12.9 km/h 74.9% 0 mm W/m2
15:09 11.6 °C 7.3 °C 1010.4 hPa NE 2.3 km/h 8 km/h 75% 0 mm W/m2
15:14 11.7 °C 7.4 °C 1010.4 hPa NE 3.1 km/h 9.7 km/h 75.3% 0 mm W/m2
15:19 11.7 °C 7.6 °C 1010.4 hPa NE 1.6 km/h 9.7 km/h 76% 0 mm W/m2
15:24 11.7 °C 7.6 °C 1010.4 hPa NE 2.6 km/h 5.6 km/h 76% 0 mm W/m2
15:29 11.6 °C 7.3 °C 1010.4 hPa NE 4 km/h 11.3 km/h 75.2% 0 mm W/m2
15:34 11.5 °C 7.4 °C 1010.4 hPa NE 2.1 km/h 11.3 km/h 76% 0 mm W/m2
15:39 11.4 °C 7.3 °C 1010.4 hPa NE 2.1 km/h 6.4 km/h 76% 0 mm W/m2
15:44 11.4 °C 7.4 °C 1010.4 hPa NE 2.3 km/h 6.4 km/h 76.4% 0 mm W/m2
15:49 11.4 °C 7.5 °C 1010.4 hPa NE 0.6 km/h 4.8 km/h 77% 0 mm W/m2
15:54 11.4 °C 7.5 °C 1010.4 hPa NE 0.8 km/h 3.7 km/h 77% 0 mm W/m2
15:59 11.3 °C 7.4 °C 1010.4 hPa NE 1 km/h 3.7 km/h 77.2% 0 mm W/m2
16:04 11.2 °C 7.5 °C 1010.4 hPa NE 0.3 km/h 3.7 km/h 77.9% 0 mm W/m2
16:09 11.2 °C 7.4 °C 1010.4 hPa NE 0.8 km/h 3.7 km/h 78% 0 mm W/m2
16:14 11.2 °C 7.4 °C 1010.4 hPa NE 0.3 km/h 3.2 km/h 78% 0 mm W/m2
16:19 11.1 °C 7.6 °C 1010.4 hPa NE 1.8 km/h 4.8 km/h 78.6% 0 mm W/m2
16:24 11.1 °C 7.6 °C 1010.4 hPa NE 1.3 km/h 5.6 km/h 79% 0 mm W/m2
16:29 11 °C 7.5 °C 1010.4 hPa Calm   3.2 km/h 79% 0 mm W/m2
16:34 10.9 °C 7.6 °C 1010.4 hPa Calm   1.9 km/h 79.8% 0 mm W/m2
16:39 10.8 °C 7.5 °C 1010.4 hPa NE 0.2 km/h 1.9 km/h 80% 0 mm W/m2
16:44 10.8 °C 7.4 °C 1010.4 hPa Calm   1.6 km/h 80% 0 mm W/m2
16:49 10.7 °C 7.6 °C 1010.4 hPa NE 0.2 km/h 1.9 km/h 80.8% 0 mm W/m2
16:54 10.7 °C 7.6 °C 1010.4 hPa Calm   1.9 km/h 81% 0 mm W/m2
16:59 10.7 °C 7.6 °C 1010.4 hPa NE 0.2 km/h 1.9 km/h 81% 0 mm W/m2
17:04 10.7 °C 7.6 °C 1010.4 hPa Calm   1.9 km/h 81% 0 mm W/m2
17:09 10.8 °C 7.7 °C 1010.4 hPa Calm     81% 0 mm W/m2
17:14 10.8 °C 7.7 °C 1010.4 hPa Calm     81% 0 mm W/m2
17:19 10.8 °C 7.7 °C 1010.4 hPa Calm     81% 0 mm W/m2
17:24 10.7 °C 7.6 °C 1010.4 hPa Calm     81% 0 mm W/m2
17:29 10.8 °C 7.7 °C 1010.4 hPa Calm     81% 0 mm W/m2
17:34 10.8 °C 7.7 °C 1010.4 hPa Calm     81% 0 mm W/m2
17:39 10.8 °C 7.7 °C 1010.4 hPa Calm     81.5% 0 mm W/m2
17:44 10.7 °C 7.8 °C 1010.4 hPa Calm     82% 0 mm W/m2
17:49 10.7 °C 7.7 °C 1010.4 hPa Calm     82% 0 mm W/m2
17:54 10.6 °C 7.8 °C 1010.4 hPa Calm     82.9% 0 mm W/m2
17:59 10.4 °C 7.7 °C 1010.4 hPa Calm     83.6% 0 mm W/m2
18:04 10.2 °C 7.7 °C 1010.4 hPa Calm     84.2% 0 mm W/m2
18:09 10.1 °C 7.7 °C 1010.4 hPa Calm     85% 0 mm W/m2
18:14 10.1 °C 7.7 °C 1010.4 hPa South 0.3 km/h 3.2 km/h 85% 0 mm W/m2
18:19 10 °C 7.7 °C 1010.4 hPa SSE 0.2 km/h 3.7 km/h 85.4% 0 mm W/m2
18:24 10 °C 7.8 °C 1010.4 hPa Calm     86% 0 mm W/m2
18:29 10 °C 7.8 °C 1010.4 hPa Calm     86% 0 mm W/m2
18:34 10.1 °C 7.7 °C 1010.4 hPa Calm   1.9 km/h 85.3% 0 mm W/m2
18:39 10.1 °C 7.7 °C 1010.4 hPa Calm   1.6 km/h 85% 0 mm W/m2
18:44 10 °C 7.6 °C 1010.4 hPa Calm     85% 0 mm W/m2
18:49 10.1 °C 7.7 °C 1010.4 hPa Calm     85.5% 0 mm W/m2
18:54 10 °C 7.8 °C 1010.4 hPa Calm     86% 0.25 mm W/m2
18:59 9.9 °C 7.7 °C 1010.4 hPa Calm   1.9 km/h 86% 0.51 mm W/m2
19:04 9.9 °C 7.8 °C 1010.4 hPa South 0.2 km/h 1.9 km/h 86.7% 0.51 mm W/m2
19:09 9.8 °C 7.7 °C 1010.4 hPa South 0.2 km/h 1.9 km/h 87% 0.51 mm W/m2
19:14 9.7 °C 7.6 °C 1010.4 hPa Calm   1.9 km/h 87% 0.51 mm W/m2
19:19 9.6 °C 7.7 °C 1010.4 hPa Calm   1.9 km/h 87.8% 0.51 mm W/m2
19:24 9.6 °C 7.7 °C 1010.4 hPa South 0.2 km/h 1.9 km/h 88% 0.51 mm W/m2
19:29 9.5 °C 7.6 °C 1010.4 hPa Calm   1.9 km/h 88% 0.51 mm W/m2
19:34 9.5 °C 7.6 °C 1010.4 hPa SW 0.3 km/h 1.9 km/h 88% 0.51 mm W/m2
19:39 9.5 °C 7.6 °C 1010.4 hPa SW 0.6 km/h 3.7 km/h 88% 0.51 mm W/m2
Acquaviva delle Fonti, BA, Italia
Complimenti a Weather Underground - 3 mb